createdAt,value
2022-08-07T00:01:43.916Z,60.92
2022-08-07T00:04:15.528Z,61.31
2022-08-07T00:06:52.565Z,61.82
2022-08-07T00:09:22.850Z,62.25
2022-08-07T00:11:56.179Z,62.68
2022-08-07T00:14:31.316Z,63.09
2022-08-07T00:17:03.721Z,63.16
2022-08-07T00:20:01.412Z,63.61
2022-08-07T00:22:24.399Z,63.96
2022-08-07T00:25:16.510Z,64.46
2022-08-07T00:27:53.675Z,64.49
2022-08-07T00:30:27.037Z,64.36
2022-08-07T00:32:58.125Z,64.54
2022-08-07T00:35:27.531Z,64.61
2022-08-07T00:37:59.273Z,64.42
2022-08-07T00:40:40.061Z,64.65
2022-08-07T00:44:01.889Z,64.59
2022-08-07T00:46:03.717Z,64.16
2022-08-07T00:48:32.866Z,64.37
2022-08-07T00:51:02.869Z,64.48
2022-08-07T00:53:39.229Z,64.20
2022-08-07T00:56:19.031Z,64.54
2022-08-07T00:58:49.944Z,64.78
2022-08-07T01:01:20.657Z,64.99
2022-08-07T01:03:57.201Z,64.51
2022-08-07T01:06:31.739Z,64.16
2022-08-07T01:09:02.058Z,64.57
2022-08-07T01:12:09.100Z,65.02
2022-08-07T01:14:28.467Z,64.77
2022-08-07T01:16:58.379Z,64.49
2022-08-07T01:19:32.630Z,64.55
2022-08-07T01:22:03.094Z,64.73
2022-08-07T01:24:37.496Z,64.75
2022-08-07T01:27:19.423Z,64.87
2022-08-07T01:29:48.356Z,65.26
2022-08-07T01:32:19.627Z,66.16
2022-08-07T01:34:52.683Z,66.18
2022-08-07T01:37:22.059Z,66.40
2022-08-07T01:39:53.180Z,66.87
2022-08-07T01:42:38.474Z,67.12
2022-08-07T01:45:23.010Z,67.22
2022-08-07T01:48:18.954Z,67.41
2022-08-07T01:51:24.474Z,67.41
2022-08-07T01:54:12.540Z,67.37
2022-08-07T01:57:24.415Z,67.09
2022-08-07T02:00:12.953Z,67.43
2022-08-07T02:03:19.465Z,67.75
2022-08-07T02:05:59.642Z,67.46
2022-08-07T02:08:42.584Z,66.97
2022-08-07T02:11:30.982Z,66.91
2022-08-07T02:14:07.446Z,67.37
2022-08-07T02:16:39.134Z,67.49
2022-08-07T02:20:04.587Z,67.63
2022-08-07T02:22:02.787Z,67.88
2022-08-07T02:24:31.773Z,68.05
2022-08-07T02:27:04.646Z,68.08
2022-08-07T02:29:43.391Z,67.88
2022-08-07T02:32:23.574Z,67.67
2022-08-07T02:34:58.909Z,67.61
2022-08-07T02:37:36.034Z,67.72
2022-08-07T02:40:30.099Z,68.01
2022-08-07T02:43:01.715Z,68.43
2022-08-07T02:45:58.938Z,68.76
2022-08-07T02:48:30.997Z,68.92
2022-08-07T02:51:29.273Z,69.06
2022-08-07T02:54:02.827Z,68.83
2022-08-07T02:56:33.351Z,68.45
2022-08-07T02:59:05.862Z,68.07
2022-08-07T03:01:40.202Z,67.86
2022-08-07T03:04:15.920Z,67.86
2022-08-07T03:06:48.065Z,67.89
2022-08-07T03:09:43.495Z,68.53
2022-08-07T03:12:21.682Z,69.13
2022-08-07T03:14:54.016Z,68.57
2022-08-07T03:17:23.743Z,69.50
2022-08-07T03:19:56.299Z,69.82
2022-08-07T03:22:29.557Z,70.08
2022-08-07T03:25:00.167Z,69.82
2022-08-07T03:27:42.154Z,70.82
2022-08-07T03:30:19.507Z,72.21
2022-08-07T03:32:58.788Z,72.57
2022-08-07T03:35:43.601Z,72.47
2022-08-07T03:38:29.380Z,72.30
2022-08-07T03:41:01.431Z,72.12
2022-08-07T03:43:36.105Z,72.17
2022-08-07T03:46:10.434Z,72.43
2022-08-07T03:49:03.131Z,72.60
2022-08-07T03:51:46.998Z,72.27
2022-08-07T03:54:35.207Z,71.79
2022-08-07T03:57:07.692Z,71.63
2022-08-07T03:59:46.600Z,71.55
2022-08-07T04:02:26.838Z,71.35
2022-08-07T04:04:54.817Z,72.13
2022-08-07T04:07:36.214Z,73.68
2022-08-07T04:10:15.776Z,73.06
2022-08-07T04:12:50.448Z,72.92
2022-08-07T04:15:20.682Z,73.33
2022-08-07T04:18:57.425Z,73.56
2022-08-07T04:20:39.973Z,73.37
2022-08-07T04:23:24.609Z,73.22
2022-08-07T04:26:16.853Z,72.88
2022-08-07T04:28:49.496Z,72.12
2022-08-07T04:31:20.274Z,71.63
2022-08-07T04:34:16.421Z,71.37
2022-08-07T04:36:48.835Z,71.12
2022-08-07T04:39:21.839Z,71.03
2022-08-07T04:41:54.185Z,71.00
2022-08-07T04:44:22.419Z,71.08
2022-08-07T04:47:57.150Z,71.21
2022-08-07T04:50:14.123Z,71.26
2022-08-07T04:53:07.630Z,71.21
2022-08-07T04:58:12.971Z,70.75
2022-08-07T05:00:09.666Z,72.11
2022-08-07T05:02:39.220Z,72.00
2022-08-07T05:05:53.993Z,71.55
2022-08-07T05:08:59.482Z,71.44
2022-08-07T05:11:58.058Z,72.27
2022-08-07T05:14:52.111Z,71.98
2022-08-07T05:17:50.297Z,71.47
2022-08-07T05:20:25.009Z,71.32
2022-08-07T05:23:30.017Z,70.81
2022-08-07T05:26:12.922Z,69.59
2022-08-07T05:28:50.212Z,69.34
2022-08-07T05:31:34.946Z,68.72
2022-08-07T05:34:10.994Z,68.26
2022-08-07T05:36:49.157Z,65.64
2022-08-07T05:40:13.864Z,59.57
2022-08-07T05:42:34.278Z,55.52
2022-08-07T05:45:26.275Z,51.55
2022-08-07T05:48:02.094Z,48.91
2022-08-07T05:50:42.619Z,46.64
2022-08-07T05:54:13.308Z,45.13
2022-08-07T05:56:06.899Z,45.01
2022-08-07T05:58:49.299Z,46.25
2022-08-07T06:01:24.964Z,45.47
2022-08-07T06:03:58.868Z,44.27
2022-08-07T06:06:37.209Z,42.28
2022-08-07T06:09:08.801Z,39.64
2022-08-07T06:11:44.057Z,38.12
2022-08-07T06:14:21.026Z,37.91
2022-08-07T06:16:55.861Z,37.33
2022-08-07T06:19:52.437Z,36.48
2022-08-07T06:22:26.980Z,36.90
2022-08-07T06:25:16.866Z,36.78
2022-08-07T06:28:01.344Z,36.90
2022-08-07T06:30:37.978Z,37.33
2022-08-07T06:33:16.285Z,41.39
2022-08-07T06:35:48.095Z,42.26
2022-08-07T06:38:38.157Z,41.00
2022-08-07T06:41:47.643Z,41.93
2022-08-07T06:44:16.833Z,42.02
2022-08-07T06:46:53.239Z,40.45
2022-08-07T06:49:22.178Z,36.90
2022-08-07T06:51:53.901Z,35.53
2022-08-07T06:55:34.100Z,34.21
2022-08-07T06:57:22.077Z,35.40
2022-08-07T07:00:18.264Z,32.89
2022-08-07T07:02:54.252Z,31.66
2022-08-07T07:06:02.681Z,31.45
2022-08-07T07:08:18.696Z,31.24
2022-08-07T07:10:57.497Z,30.25
2022-08-07T07:13:55.934Z,29.85
2022-08-07T07:16:30.294Z,29.37
2022-08-07T07:19:54.761Z,28.94
2022-08-07T07:22:11.441Z,27.42
2022-08-07T07:24:56.678Z,27.49
2022-08-07T07:27:56.108Z,26.90
2022-08-07T07:30:39.560Z,27.12
2022-08-07T07:33:12.290Z,27.86
2022-08-07T07:36:04.693Z,28.51
2022-08-07T07:38:34.740Z,27.36
2022-08-07T07:41:08.889Z,26.89
2022-08-07T07:43:48.162Z,26.99
2022-08-07T07:46:53.566Z,27.36
2022-08-07T07:50:34.443Z,28.55
2022-08-07T07:52:19.085Z,28.45
2022-08-07T07:54:50.614Z,27.91
2022-08-07T07:57:51.741Z,27.98
2022-08-07T08:00:12.187Z,28.28
2022-08-07T08:03:04.902Z,28.25
2022-08-07T08:05:42.893Z,28.45
2022-08-07T08:08:35.015Z,28.10
2022-08-07T08:11:59.707Z,28.14
2022-08-07T08:14:06.442Z,27.56
2022-08-07T08:16:50.245Z,28.05
2022-08-07T08:20:19.642Z,27.94
2022-08-07T08:22:33.288Z,27.63
2022-08-07T08:25:27.041Z,27.42
2022-08-07T08:28:23.998Z,25.94
2022-08-07T08:31:15.749Z,25.11
2022-08-07T08:33:55.808Z,24.94
2022-08-07T08:36:30.408Z,24.56
2022-08-07T08:39:02.637Z,25.57
2022-08-07T08:41:57.746Z,25.47
2022-08-07T08:44:48.673Z,23.55
2022-08-07T08:47:52.474Z,24.44
2022-08-07T08:50:40.251Z,24.52
2022-08-07T08:53:21.726Z,23.73
2022-08-07T08:56:15.975Z,23.73
2022-08-07T08:59:12.785Z,23.89
2022-08-07T09:02:01.407Z,23.48
2022-08-07T09:05:22.560Z,23.03
2022-08-07T09:08:04.778Z,23.35
2022-08-07T09:10:51.150Z,22.55
2022-08-07T09:13:38.574Z,21.61
2022-08-07T09:16:36.744Z,22.80
2022-08-07T09:19:50.747Z,22.59
2022-08-07T09:24:31.342Z,24.40
2022-08-07T09:26:12.129Z,23.22
2022-08-07T09:30:05.932Z,23.00
2022-08-07T09:32:23.863Z,21.80
2022-08-07T09:36:04.889Z,22.56
2022-08-07T09:38:14.635Z,22.32
2022-08-07T09:41:20.443Z,22.49
2022-08-07T09:44:45.218Z,21.96
2022-08-07T09:47:59.931Z,24.00
2022-08-07T09:50:36.728Z,24.41
2022-08-07T09:53:22.564Z,23.26
2022-08-07T09:56:37.245Z,23.93
2022-08-07T09:59:35.679Z,23.06
2022-08-07T10:02:35.584Z,21.66
2022-08-07T10:05:29.690Z,21.79
2022-08-07T10:08:32.480Z,21.33
2022-08-07T10:12:01.297Z,21.45
2022-08-07T10:14:30.464Z,22.13
2022-08-07T10:17:02.070Z,22.19
2022-08-07T10:19:54.543Z,22.21
2022-08-07T10:22:36.582Z,22.34
2022-08-07T10:25:13.544Z,21.51
2022-08-07T10:27:47.610Z,21.94
2022-08-07T10:30:26.567Z,21.82
2022-08-07T10:33:19.111Z,22.36
2022-08-07T10:36:51.407Z,22.07
2022-08-07T10:40:03.563Z,21.94
2022-08-07T10:43:34.116Z,22.02
2022-08-07T10:46:14.159Z,23.49
2022-08-07T10:48:58.157Z,22.11
2022-08-07T10:52:12.911Z,22.34
2022-08-07T10:55:01.095Z,23.27
2022-08-07T10:58:16.446Z,22.40
2022-08-07T11:01:02.771Z,22.38
2022-08-07T11:03:55.160Z,22.01
2022-08-07T11:06:42.908Z,22.72
2022-08-07T11:10:07.058Z,22.18
2022-08-07T11:12:35.368Z,22.39
2022-08-07T11:15:17.670Z,22.97
2022-08-07T11:17:49.561Z,23.63
2022-08-07T11:20:31.680Z,24.34
2022-08-07T11:23:30.787Z,25.19
2022-08-07T11:26:24.641Z,24.31
2022-08-07T11:29:40.637Z,23.16
2022-08-07T11:32:25.286Z,22.54
2022-08-07T11:35:04.176Z,22.30
2022-08-07T11:38:12.782Z,21.88
2022-08-07T11:41:06.514Z,21.90
2022-08-07T11:44:12.391Z,22.35
2022-08-07T11:47:38.685Z,22.97
2022-08-07T11:50:57.455Z,22.16
2022-08-07T11:53:43.396Z,22.92
2022-08-07T11:56:59.793Z,22.20
2022-08-07T12:00:12.045Z,23.45
2022-08-07T12:03:46.342Z,23.93
2022-08-07T12:06:50.303Z,23.90
2022-08-07T12:09:37.828Z,24.54
2022-08-07T12:12:11.557Z,24.58
2022-08-07T12:14:45.700Z,24.40
2022-08-07T12:17:33.723Z,25.40
2022-08-07T12:20:32.192Z,24.72
2022-08-07T12:24:05.479Z,25.22
2022-08-07T12:26:47.003Z,26.25
2022-08-07T12:29:38.826Z,27.04
2022-08-07T12:32:20.728Z,25.84
2022-08-07T12:34:55.698Z,25.07
2022-08-07T12:37:28.475Z,25.42
2022-08-07T12:40:47.327Z,26.75
2022-08-07T12:44:03.674Z,26.06
2022-08-07T12:46:32.847Z,25.98
2022-08-07T12:49:49.144Z,25.54
2022-08-07T12:52:34.431Z,25.06
2022-08-07T12:55:17.510Z,25.26
2022-08-07T12:58:00.260Z,25.79
2022-08-07T13:00:50.880Z,26.41
2022-08-07T13:04:02.597Z,26.28
2022-08-07T13:07:00.105Z,27.11
2022-08-07T13:10:19.401Z,26.87
2022-08-07T13:13:01.951Z,26.84
2022-08-07T13:15:51.545Z,27.46
2022-08-07T13:19:00.890Z,26.74
2022-08-07T13:21:55.043Z,27.18
2022-08-07T13:25:02.952Z,27.66
2022-08-07T13:28:12.865Z,26.74
2022-08-07T13:30:48.941Z,26.17
2022-08-07T13:34:33.059Z,27.03
2022-08-07T13:36:47.655Z,27.09
2022-08-07T13:40:33.078Z,26.97
2022-08-07T13:42:39.703Z,26.54
2022-08-07T13:45:21.025Z,27.00
2022-08-07T13:48:08.086Z,26.79
2022-08-07T13:50:45.073Z,27.11
2022-08-07T13:53:55.228Z,27.52
2022-08-07T13:56:35.925Z,28.17
2022-08-07T13:59:24.419Z,27.55
2022-08-07T14:02:10.433Z,27.79
2022-08-07T14:04:54.308Z,27.49
2022-08-07T14:07:30.613Z,27.08
2022-08-07T14:10:20.510Z,27.17
2022-08-07T14:12:55.666Z,26.86
2022-08-07T14:15:53.701Z,26.58
2022-08-07T14:18:39.707Z,27.03
2022-08-07T14:22:00.677Z,26.05
2022-08-07T14:24:23.055Z,26.91
2022-08-07T14:28:09.210Z,27.07
2022-08-07T14:30:06.367Z,26.69
2022-08-07T14:32:46.111Z,27.31
2022-08-07T14:35:42.906Z,27.69
2022-08-07T14:38:26.080Z,28.32
2022-08-07T14:41:14.860Z,28.40
2022-08-07T14:43:57.411Z,28.67
2022-08-07T14:46:33.529Z,28.83
2022-08-07T14:49:55.928Z,28.47
2022-08-07T14:52:04.843Z,29.54
2022-08-07T14:54:43.324Z,30.29
2022-08-07T14:57:19.330Z,29.79
2022-08-07T15:00:05.354Z,30.63
2022-08-07T15:02:44.333Z,30.04
2022-08-07T15:05:30.203Z,30.26
2022-08-07T15:07:59.926Z,30.67
2022-08-07T15:10:34.715Z,29.38
2022-08-07T15:13:12.333Z,30.61
2022-08-07T15:15:52.664Z,29.88
2022-08-07T15:18:41.556Z,29.98
2022-08-07T15:21:44.053Z,30.48
2022-08-07T15:25:15.651Z,30.68
2022-08-07T15:27:29.571Z,29.42
2022-08-07T15:30:16.543Z,29.30
2022-08-07T15:33:01.327Z,29.71
2022-08-07T15:36:00.563Z,30.88
2022-08-07T15:38:31.012Z,29.85
2022-08-07T15:44:13.856Z,31.06
2022-08-07T15:46:52.366Z,31.35
2022-08-07T15:50:06.035Z,31.19
2022-08-07T15:52:30.701Z,31.11
2022-08-07T15:55:03.743Z,31.19
2022-08-07T15:57:39.867Z,30.85
2022-08-07T16:00:31.487Z,30.21
2022-08-07T16:03:47.271Z,31.74
2022-08-07T16:06:24.583Z,32.26
2022-08-07T16:08:58.210Z,31.96
2022-08-07T16:12:02.473Z,32.29
2022-08-07T16:15:55.308Z,32.01
2022-08-07T16:18:49.761Z,31.91
2022-08-07T16:22:02.303Z,32.05
2022-08-07T16:24:35.090Z,32.02
2022-08-07T16:27:18.662Z,32.35
2022-08-07T16:30:09.325Z,33.45
2022-08-07T16:34:03.354Z,32.85
2022-08-07T16:36:31.293Z,32.07
2022-08-07T16:39:54.670Z,32.09
2022-08-07T16:42:56.041Z,32.25
2022-08-07T16:46:21.048Z,32.93
2022-08-07T16:50:27.098Z,32.69
2022-08-07T16:52:50.771Z,33.10
2022-08-07T16:55:15.015Z,33.58
2022-08-07T16:58:07.945Z,33.14
2022-08-07T17:00:54.426Z,33.88
2022-08-07T17:03:59.912Z,32.96
2022-08-07T17:07:06.522Z,33.31
2022-08-07T17:10:06.466Z,33.83
2022-08-07T17:13:15.067Z,33.28
2022-08-07T17:15:50.761Z,33.72
2022-08-07T17:18:46.137Z,33.93
2022-08-07T17:21:55.607Z,34.23
2022-08-07T17:25:03.832Z,34.19
2022-08-07T17:28:06.729Z,33.92
2022-08-07T17:31:00.801Z,34.09
2022-08-07T17:34:15.314Z,34.48
2022-08-07T17:37:09.696Z,34.51
2022-08-07T17:43:18.295Z,34.87
2022-08-07T17:45:58.788Z,34.96
2022-08-07T17:48:44.233Z,35.06
2022-08-07T17:51:59.680Z,35.31
2022-08-07T17:54:40.060Z,35.53
2022-08-07T17:57:56.657Z,35.81
2022-08-07T18:00:32.817Z,36.08
2022-08-07T18:03:25.564Z,36.27
2022-08-07T18:06:03.424Z,36.36
2022-08-07T18:09:01.405Z,36.50
2022-08-07T18:12:06.743Z,36.27
2022-08-07T18:14:51.168Z,36.51
2022-08-07T18:18:47.070Z,37.04
2022-08-07T18:21:42.260Z,37.29
2022-08-07T18:24:33.116Z,37.48
2022-08-07T18:27:38.172Z,37.86
2022-08-07T18:30:33.050Z,38.04
2022-08-07T18:33:16.621Z,38.13
2022-08-07T18:36:16.235Z,38.28
2022-08-07T18:40:07.245Z,38.38
2022-08-07T18:42:27.778Z,38.80
2022-08-07T18:45:44.508Z,38.82
2022-08-07T18:50:05.000Z,39.33
2022-08-07T18:52:34.936Z,39.40
2022-08-07T18:54:50.962Z,39.50
2022-08-07T18:57:30.592Z,39.87
2022-08-07T19:00:33.546Z,39.89
2022-08-07T19:03:38.104Z,40.22
2022-08-07T19:06:21.305Z,40.40
2022-08-07T19:09:55.415Z,40.62
2022-08-07T19:12:19.194Z,40.90
2022-08-07T19:16:04.728Z,41.37
2022-08-07T19:18:34.992Z,41.78
2022-08-07T19:21:45.041Z,41.29
2022-08-07T19:24:30.537Z,41.42
2022-08-07T19:28:29.219Z,41.38
2022-08-07T19:31:05.966Z,41.41
2022-08-07T19:33:13.066Z,41.40
2022-08-07T19:35:55.170Z,41.70
2022-08-07T19:38:27.894Z,41.53
2022-08-07T19:41:06.457Z,41.97
2022-08-07T19:43:52.154Z,42.19
2022-08-07T19:46:31.398Z,42.25
2022-08-07T19:49:58.216Z,42.46
2022-08-07T19:52:18.543Z,42.50
2022-08-07T19:54:55.735Z,42.48
2022-08-07T19:58:01.619Z,43.05
2022-08-07T20:00:30.409Z,43.03
2022-08-07T20:03:34.751Z,43.43
2022-08-07T20:06:06.913Z,44.00
2022-08-07T20:08:50.272Z,44.17
2022-08-07T20:11:23.123Z,44.19
2022-08-07T20:14:33.208Z,44.68
2022-08-07T20:17:07.651Z,44.26
2022-08-07T20:19:49.342Z,44.15
2022-08-07T20:22:34.122Z,44.58
2022-08-07T20:25:12.503Z,45.00
2022-08-07T20:27:57.961Z,45.05
2022-08-07T20:30:36.967Z,45.25
2022-08-07T20:33:08.902Z,45.43
2022-08-07T20:36:01.501Z,45.34
2022-08-07T20:38:33.324Z,45.50
2022-08-07T20:41:05.522Z,45.50
2022-08-07T20:43:35.599Z,45.97
2022-08-07T20:46:28.241Z,46.21
2022-08-07T20:49:58.975Z,46.43
2022-08-07T20:51:51.145Z,46.23
2022-08-07T20:54:30.184Z,46.80
2022-08-07T20:57:08.381Z,46.80
2022-08-07T21:00:06.558Z,47.37
2022-08-07T21:02:54.324Z,47.20
2022-08-07T21:05:52.723Z,47.62
2022-08-07T21:08:37.082Z,47.47
2022-08-07T21:11:15.276Z,47.48
2022-08-07T21:14:16.164Z,47.47
2022-08-07T21:17:06.421Z,47.59
2022-08-07T21:19:51.246Z,47.68
2022-08-07T21:22:39.524Z,47.65
2022-08-07T21:25:56.472Z,47.98
2022-08-07T21:28:48.429Z,48.19
2022-08-07T21:32:43.558Z,48.49
2022-08-07T21:34:52.762Z,48.88
2022-08-07T21:37:57.939Z,49.02
2022-08-07T21:40:26.422Z,49.40
2022-08-07T21:43:23.081Z,49.69
2022-08-07T21:46:39.083Z,49.99
2022-08-07T21:50:00.688Z,50.30
2022-08-07T21:52:54.532Z,50.37
2022-08-07T21:55:28.115Z,50.66
2022-08-07T21:57:58.068Z,50.81
2022-08-07T22:00:26.460Z,50.85
2022-08-07T22:03:05.755Z,50.97
2022-08-07T22:06:02.108Z,51.31
2022-08-07T22:08:59.370Z,51.55
2022-08-07T22:11:30.814Z,51.76
2022-08-07T22:14:34.876Z,51.89
2022-08-07T22:17:07.541Z,51.72
2022-08-07T22:19:57.258Z,51.89
2022-08-07T22:22:36.721Z,52.01
2022-08-07T22:25:17.171Z,52.18
2022-08-07T22:28:31.112Z,52.56
2022-08-07T22:31:09.525Z,52.96
2022-08-07T22:33:56.925Z,53.25
2022-08-07T22:36:58.983Z,53.23
2022-08-07T22:39:54.012Z,53.73
2022-08-07T22:42:53.954Z,54.01
2022-08-07T22:46:40.725Z,54.06
2022-08-07T22:48:54.570Z,54.25
2022-08-07T22:51:42.843Z,54.55
2022-08-07T22:54:49.330Z,54.77
2022-08-07T22:57:49.987Z,55.08
2022-08-07T23:00:45.661Z,55.13
2022-08-07T23:04:01.406Z,55.09
2022-08-07T23:07:03.974Z,55.20
2022-08-07T23:10:37.707Z,55.29
2022-08-07T23:13:48.903Z,55.28
2022-08-07T23:17:00.154Z,55.43
2022-08-07T23:19:58.010Z,55.22
2022-08-07T23:24:05.208Z,55.03
2022-08-07T23:26:18.405Z,55.12
2022-08-07T23:29:04.644Z,54.88
2022-08-07T23:34:20.331Z,54.64
2022-08-07T23:35:19.270Z,55.03
2022-08-07T23:38:01.330Z,55.14
2022-08-07T23:40:51.738Z,55.21
2022-08-07T23:43:58.022Z,55.14
2022-08-07T23:47:02.541Z,54.81
2022-08-07T23:49:59.047Z,55.09
2022-08-07T23:53:05.234Z,55.23
2022-08-07T23:55:56.089Z,55.09
